sensor_id;sensor_type;location;lat;lon;timestamp;P1;durP1;ratioP1;P2;durP2;ratioP2
33104;SDS011;19476;51.448;6.674;2022-08-19T00:01:33;4.00;;;2.50;;
33104;SDS011;19476;51.448;6.674;2022-08-19T00:04:02;2.67;;;2.28;;
33104;SDS011;19476;51.448;6.674;2022-08-19T00:06:30;3.75;;;2.80;;
33104;SDS011;19476;51.448;6.674;2022-08-19T00:08:56;3.92;;;2.83;;
33104;SDS011;19476;51.448;6.674;2022-08-19T00:11:25;3.08;;;2.58;;
33104;SDS011;19476;51.448;6.674;2022-08-19T00:13:53;4.63;;;2.95;;
33104;SDS011;19476;51.448;6.674;2022-08-19T00:16:21;3.63;;;2.60;;
33104;SDS011;19476;51.448;6.674;2022-08-19T00:18:47;3.55;;;2.90;;
33104;SDS011;19476;51.448;6.674;2022-08-19T00:21:13;4.15;;;2.97;;
33104;SDS011;19476;51.448;6.674;2022-08-19T00:23:40;3.42;;;2.58;;
33104;SDS011;19476;51.448;6.674;2022-08-19T00:26:08;3.15;;;2.50;;
33104;SDS011;19476;51.448;6.674;2022-08-19T00:28:34;4.00;;;2.72;;
33104;SDS011;19476;51.448;6.674;2022-08-19T00:31:01;3.42;;;2.45;;
33104;SDS011;19476;51.448;6.674;2022-08-19T00:33:31;3.85;;;2.40;;
33104;SDS011;19476;51.448;6.674;2022-08-19T00:36:00;3.92;;;2.60;;
33104;SDS011;19476;51.448;6.674;2022-08-19T00:38:29;7.05;;;3.10;;
33104;SDS011;19476;51.448;6.674;2022-08-19T00:40:55;5.63;;;2.65;;
33104;SDS011;19476;51.448;6.674;2022-08-19T00:43:23;4.45;;;2.90;;
33104;SDS011;19476;51.448;6.674;2022-08-19T00:45:51;4.25;;;2.83;;
33104;SDS011;19476;51.448;6.674;2022-08-19T00:48:17;5.38;;;2.80;;
33104;SDS011;19476;51.448;6.674;2022-08-19T00:50:44;3.53;;;2.58;;
33104;SDS011;19476;51.448;6.674;2022-08-19T00:53:12;3.85;;;2.53;;
33104;SDS011;19476;51.448;6.674;2022-08-19T00:55:42;2.90;;;2.38;;
33104;SDS011;19476;51.448;6.674;2022-08-19T00:58:12;3.80;;;2.60;;
33104;SDS011;19476;51.448;6.674;2022-08-19T01:00:41;4.93;;;2.80;;
33104;SDS011;19476;51.448;6.674;2022-08-19T01:03:07;3.95;;;2.88;;
33104;SDS011;19476;51.448;6.674;2022-08-19T01:05:35;4.20;;;2.83;;
33104;SDS011;19476;51.448;6.674;2022-08-19T01:08:05;4.47;;;3.08;;
33104;SDS011;19476;51.448;6.674;2022-08-19T01:10:33;4.53;;;3.13;;
33104;SDS011;19476;51.448;6.674;2022-08-19T01:13:02;4.53;;;3.38;;
33104;SDS011;19476;51.448;6.674;2022-08-19T01:15:33;3.97;;;2.80;;
33104;SDS011;19476;51.448;6.674;2022-08-19T01:18:07;3.80;;;3.00;;
33104;SDS011;19476;51.448;6.674;2022-08-19T01:23:01;5.10;;;3.00;;
33104;SDS011;19476;51.448;6.674;2022-08-19T01:25:34;5.63;;;3.38;;
33104;SDS011;19476;51.448;6.674;2022-08-19T01:28:20;5.03;;;3.28;;
33104;SDS011;19476;51.448;6.674;2022-08-19T01:30:50;5.03;;;3.10;;
33104;SDS011;19476;51.448;6.674;2022-08-19T01:33:17;4.47;;;3.20;;
33104;SDS011;19476;51.448;6.674;2022-08-19T01:35:44;6.22;;;4.07;;
33104;SDS011;19476;51.448;6.674;2022-08-19T01:38:22;5.13;;;3.80;;
33104;SDS011;19476;51.448;6.674;2022-08-19T01:43:17;5.10;;;3.03;;
33104;SDS011;19476;51.448;6.674;2022-08-19T01:45:44;5.57;;;3.60;;
33104;SDS011;19476;51.448;6.674;2022-08-19T01:48:10;4.97;;;3.47;;
33104;SDS011;19476;51.448;6.674;2022-08-19T01:50:37;5.65;;;3.65;;
33104;SDS011;19476;51.448;6.674;2022-08-19T01:53:04;6.78;;;4.15;;
33104;SDS011;19476;51.448;6.674;2022-08-19T01:55:33;6.50;;;3.88;;
33104;SDS011;19476;51.448;6.674;2022-08-19T01:58:02;5.60;;;3.40;;
33104;SDS011;19476;51.448;6.674;2022-08-19T02:00:30;5.63;;;3.35;;
33104;SDS011;19476;51.448;6.674;2022-08-19T02:02:57;6.72;;;3.40;;
33104;SDS011;19476;51.448;6.674;2022-08-19T02:05:24;6.25;;;3.55;;
33104;SDS011;19476;51.448;6.674;2022-08-19T02:07:50;5.68;;;3.40;;
33104;SDS011;19476;51.448;6.674;2022-08-19T02:10:18;5.15;;;3.90;;
33104;SDS011;19476;51.448;6.674;2022-08-19T02:12:46;6.18;;;3.90;;
33104;SDS011;19476;51.448;6.674;2022-08-19T02:15:12;5.22;;;3.63;;
33104;SDS011;19476;51.448;6.674;2022-08-19T02:17:38;6.40;;;3.95;;
33104;SDS011;19476;51.448;6.674;2022-08-19T02:20:05;6.07;;;3.85;;
33104;SDS011;19476;51.448;6.674;2022-08-19T02:22:32;6.18;;;3.53;;
33104;SDS011;19476;51.448;6.674;2022-08-19T02:24:58;4.97;;;3.63;;
33104;SDS011;19476;51.448;6.674;2022-08-19T02:27:23;5.95;;;4.10;;
33104;SDS011;19476;51.448;6.674;2022-08-19T02:29:50;6.35;;;4.18;;
33104;SDS011;19476;51.448;6.674;2022-08-19T02:32:17;5.75;;;4.07;;
33104;SDS011;19476;51.448;6.674;2022-08-19T02:34:45;5.80;;;4.03;;
33104;SDS011;19476;51.448;6.674;2022-08-19T02:37:11;6.68;;;4.70;;
33104;SDS011;19476;51.448;6.674;2022-08-19T02:39:56;6.65;;;4.03;;
33104;SDS011;19476;51.448;6.674;2022-08-19T02:42:22;5.70;;;4.03;;
33104;SDS011;19476;51.448;6.674;2022-08-19T02:44:48;7.45;;;4.57;;
33104;SDS011;19476;51.448;6.674;2022-08-19T02:47:14;6.85;;;4.20;;
33104;SDS011;19476;51.448;6.674;2022-08-19T02:49:40;7.25;;;4.50;;
33104;SDS011;19476;51.448;6.674;2022-08-19T02:52:06;6.60;;;4.15;;
33104;SDS011;19476;51.448;6.674;2022-08-19T02:54:32;6.97;;;5.07;;
33104;SDS011;19476;51.448;6.674;2022-08-19T02:56:58;8.32;;;4.65;;
33104;SDS011;19476;51.448;6.674;2022-08-19T02:59:24;8.15;;;4.47;;
33104;SDS011;19476;51.448;6.674;2022-08-19T03:01:50;6.53;;;4.60;;
33104;SDS011;19476;51.448;6.674;2022-08-19T03:04:16;7.40;;;4.35;;
33104;SDS011;19476;51.448;6.674;2022-08-19T03:06:43;7.13;;;4.88;;
33104;SDS011;19476;51.448;6.674;2022-08-19T03:09:11;7.82;;;4.72;;
33104;SDS011;19476;51.448;6.674;2022-08-19T03:11:38;7.13;;;4.38;;
33104;SDS011;19476;51.448;6.674;2022-08-19T03:14:05;9.05;;;5.40;;
33104;SDS011;19476;51.448;6.674;2022-08-19T03:16:33;9.07;;;6.72;;
33104;SDS011;19476;51.448;6.674;2022-08-19T03:19:04;7.07;;;4.97;;
33104;SDS011;19476;51.448;6.674;2022-08-19T03:21:31;8.27;;;5.20;;
33104;SDS011;19476;51.448;6.674;2022-08-19T03:23:58;8.40;;;4.95;;
33104;SDS011;19476;51.448;6.674;2022-08-19T03:26:29;7.28;;;5.32;;
33104;SDS011;19476;51.448;6.674;2022-08-19T03:28:55;8.93;;;6.00;;
33104;SDS011;19476;51.448;6.674;2022-08-19T03:31:21;7.93;;;5.18;;
33104;SDS011;19476;51.448;6.674;2022-08-19T03:33:49;6.72;;;5.10;;
33104;SDS011;19476;51.448;6.674;2022-08-19T03:36:20;9.10;;;5.78;;
33104;SDS011;19476;51.448;6.674;2022-08-19T03:38:51;8.30;;;6.35;;
33104;SDS011;19476;51.448;6.674;2022-08-19T03:41:30;10.40;;;6.00;;
33104;SDS011;19476;51.448;6.674;2022-08-19T03:44:01;8.65;;;6.60;;
33104;SDS011;19476;51.448;6.674;2022-08-19T03:46:30;9.30;;;6.60;;
33104;SDS011;19476;51.448;6.674;2022-08-19T03:48:58;9.35;;;6.00;;
33104;SDS011;19476;51.448;6.674;2022-08-19T03:51:29;9.90;;;7.15;;
33104;SDS011;19476;51.448;6.674;2022-08-19T03:53:58;9.82;;;7.22;;
33104;SDS011;19476;51.448;6.674;2022-08-19T03:56:26;10.23;;;7.28;;
33104;SDS011;19476;51.448;6.674;2022-08-19T04:01:23;9.23;;;6.18;;
33104;SDS011;19476;51.448;6.674;2022-08-19T04:03:54;11.10;;;7.40;;
33104;SDS011;19476;51.448;6.674;2022-08-19T04:06:22;11.68;;;7.82;;
33104;SDS011;19476;51.448;6.674;2022-08-19T04:08:51;11.63;;;7.25;;
33104;SDS011;19476;51.448;6.674;2022-08-19T04:11:25;11.30;;;8.15;;
33104;SDS011;19476;51.448;6.674;2022-08-19T04:13:56;12.63;;;7.78;;
33104;SDS011;19476;51.448;6.674;2022-08-19T04:16:23;11.02;;;7.95;;
33104;SDS011;19476;51.448;6.674;2022-08-19T04:18:53;10.38;;;7.32;;
33104;SDS011;19476;51.448;6.674;2022-08-19T04:21:22;9.15;;;7.03;;
33104;SDS011;19476;51.448;6.674;2022-08-19T04:23:50;10.10;;;7.13;;
33104;SDS011;19476;51.448;6.674;2022-08-19T04:26:26;10.45;;;7.70;;
33104;SDS011;19476;51.448;6.674;2022-08-19T04:28:54;9.93;;;7.63;;
33104;SDS011;19476;51.448;6.674;2022-08-19T04:31:22;8.73;;;6.65;;
33104;SDS011;19476;51.448;6.674;2022-08-19T04:33:53;10.02;;;7.45;;
33104;SDS011;19476;51.448;6.674;2022-08-19T04:36:22;10.30;;;6.80;;
33104;SDS011;19476;51.448;6.674;2022-08-19T04:38:53;8.85;;;6.75;;
33104;SDS011;19476;51.448;6.674;2022-08-19T04:44:05;8.85;;;6.25;;
33104;SDS011;19476;51.448;6.674;2022-08-19T04:46:32;12.68;;;8.57;;
33104;SDS011;19476;51.448;6.674;2022-08-19T04:48:59;11.85;;;8.13;;
33104;SDS011;19476;51.448;6.674;2022-08-19T04:51:25;10.30;;;7.40;;
33104;SDS011;19476;51.448;6.674;2022-08-19T04:53:52;11.57;;;7.40;;
33104;SDS011;19476;51.448;6.674;2022-08-19T04:56:18;11.48;;;8.18;;
33104;SDS011;19476;51.448;6.674;2022-08-19T04:58:47;10.57;;;7.13;;
33104;SDS011;19476;51.448;6.674;2022-08-19T05:01:25;10.73;;;7.77;;
33104;SDS011;19476;51.448;6.674;2022-08-19T05:03:57;9.65;;;7.10;;
33104;SDS011;19476;51.448;6.674;2022-08-19T05:06:25;11.33;;;8.23;;
33104;SDS011;19476;51.448;6.674;2022-08-19T05:08:51;11.75;;;8.38;;
33104;SDS011;19476;51.448;6.674;2022-08-19T05:11:19;11.52;;;8.95;;
33104;SDS011;19476;51.448;6.674;2022-08-19T05:13:50;12.95;;;8.80;;
33104;SDS011;19476;51.448;6.674;2022-08-19T05:16:17;12.70;;;9.75;;
33104;SDS011;19476;51.448;6.674;2022-08-19T05:18:46;12.85;;;9.18;;
33104;SDS011;19476;51.448;6.674;2022-08-19T05:21:31;13.02;;;8.98;;
33104;SDS011;19476;51.448;6.674;2022-08-19T05:24:16;14.65;;;10.32;;
33104;SDS011;19476;51.448;6.674;2022-08-19T05:26:43;14.60;;;10.55;;
33104;SDS011;19476;51.448;6.674;2022-08-19T05:29:12;14.10;;;10.75;;
33104;SDS011;19476;51.448;6.674;2022-08-19T05:31:44;14.00;;;9.82;;
33104;SDS011;19476;51.448;6.674;2022-08-19T05:34:11;13.88;;;10.63;;
33104;SDS011;19476;51.448;6.674;2022-08-19T05:36:41;14.27;;;11.00;;
33104;SDS011;19476;51.448;6.674;2022-08-19T05:39:11;13.68;;;10.52;;
33104;SDS011;19476;51.448;6.674;2022-08-19T05:41:44;16.13;;;11.50;;
33104;SDS011;19476;51.448;6.674;2022-08-19T05:44:15;13.95;;;10.38;;
33104;SDS011;19476;51.448;6.674;2022-08-19T05:46:45;15.02;;;10.73;;
33104;SDS011;19476;51.448;6.674;2022-08-19T05:49:14;13.27;;;10.00;;
33104;SDS011;19476;51.448;6.674;2022-08-19T05:51:41;12.95;;;10.55;;
33104;SDS011;19476;51.448;6.674;2022-08-19T05:54:07;15.88;;;11.20;;
33104;SDS011;19476;51.448;6.674;2022-08-19T05:56:34;14.70;;;10.98;;
33104;SDS011;19476;51.448;6.674;2022-08-19T05:59:03;15.52;;;11.27;;
33104;SDS011;19476;51.448;6.674;2022-08-19T06:01:33;15.10;;;11.40;;
33104;SDS011;19476;51.448;6.674;2022-08-19T06:04:00;15.18;;;12.02;;
33104;SDS011;19476;51.448;6.674;2022-08-19T06:06:26;18.50;;;12.40;;
33104;SDS011;19476;51.448;6.674;2022-08-19T06:08:52;20.38;;;12.80;;
33104;SDS011;19476;51.448;6.674;2022-08-19T06:11:19;17.35;;;11.20;;
33104;SDS011;19476;51.448;6.674;2022-08-19T06:13:52;17.35;;;11.57;;
33104;SDS011;19476;51.448;6.674;2022-08-19T06:16:19;16.17;;;12.05;;
33104;SDS011;19476;51.448;6.674;2022-08-19T06:18:50;16.55;;;13.00;;
33104;SDS011;19476;51.448;6.674;2022-08-19T06:21:21;15.77;;;12.35;;
33104;SDS011;19476;51.448;6.674;2022-08-19T06:23:49;17.17;;;12.35;;
33104;SDS011;19476;51.448;6.674;2022-08-19T06:26:16;17.17;;;12.50;;
33104;SDS011;19476;51.448;6.674;2022-08-19T06:28:45;19.17;;;12.55;;
33104;SDS011;19476;51.448;6.674;2022-08-19T06:31:24;18.27;;;13.98;;
33104;SDS011;19476;51.448;6.674;2022-08-19T06:33:52;18.20;;;13.60;;
33104;SDS011;19476;51.448;6.674;2022-08-19T06:38:52;19.67;;;13.57;;
33104;SDS011;19476;51.448;6.674;2022-08-19T06:41:23;19.05;;;13.43;;
33104;SDS011;19476;51.448;6.674;2022-08-19T06:43:50;18.77;;;14.85;;
33104;SDS011;19476;51.448;6.674;2022-08-19T06:46:17;19.17;;;14.65;;
33104;SDS011;19476;51.448;6.674;2022-08-19T06:48:45;17.10;;;13.57;;
33104;SDS011;19476;51.448;6.674;2022-08-19T06:51:15;22.05;;;15.95;;
33104;SDS011;19476;51.448;6.674;2022-08-19T06:53:44;19.08;;;14.30;;
33104;SDS011;19476;51.448;6.674;2022-08-19T06:56:15;20.02;;;15.68;;
33104;SDS011;19476;51.448;6.674;2022-08-19T06:58:44;18.33;;;14.48;;
33104;SDS011;19476;51.448;6.674;2022-08-19T07:01:11;16.75;;;12.95;;
33104;SDS011;19476;51.448;6.674;2022-08-19T07:03:38;19.40;;;15.13;;
33104;SDS011;19476;51.448;6.674;2022-08-19T07:06:05;18.42;;;13.77;;
33104;SDS011;19476;51.448;6.674;2022-08-19T07:08:35;20.75;;;15.55;;
33104;SDS011;19476;51.448;6.674;2022-08-19T07:11:05;19.98;;;14.30;;
33104;SDS011;19476;51.448;6.674;2022-08-19T07:16:02;17.98;;;13.40;;
33104;SDS011;19476;51.448;6.674;2022-08-19T07:18:39;18.20;;;14.20;;
33104;SDS011;19476;51.448;6.674;2022-08-19T07:21:13;19.48;;;14.75;;
33104;SDS011;19476;51.448;6.674;2022-08-19T07:23:41;20.23;;;13.65;;
33104;SDS011;19476;51.448;6.674;2022-08-19T07:26:08;17.67;;;13.45;;
33104;SDS011;19476;51.448;6.674;2022-08-19T07:28:36;21.23;;;15.17;;
33104;SDS011;19476;51.448;6.674;2022-08-19T07:31:05;18.05;;;12.65;;
33104;SDS011;19476;51.448;6.674;2022-08-19T07:33:39;16.30;;;11.40;;
33104;SDS011;19476;51.448;6.674;2022-08-19T07:36:07;16.30;;;12.00;;
33104;SDS011;19476;51.448;6.674;2022-08-19T07:38:36;15.90;;;11.80;;
33104;SDS011;19476;51.448;6.674;2022-08-19T07:41:04;15.00;;;10.80;;
33104;SDS011;19476;51.448;6.674;2022-08-19T07:43:30;15.40;;;9.90;;
33104;SDS011;19476;51.448;6.674;2022-08-19T07:45:57;13.20;;;9.45;;
33104;SDS011;19476;51.448;6.674;2022-08-19T07:48:24;12.93;;;9.02;;
33104;SDS011;19476;51.448;6.674;2022-08-19T07:50:54;13.45;;;8.98;;
33104;SDS011;19476;51.448;6.674;2022-08-19T07:53:22;14.85;;;8.57;;
33104;SDS011;19476;51.448;6.674;2022-08-19T07:55:49;12.68;;;9.13;;
33104;SDS011;19476;51.448;6.674;2022-08-19T07:58:16;17.45;;;10.80;;
33104;SDS011;19476;51.448;6.674;2022-08-19T08:00:45;12.45;;;8.73;;
33104;SDS011;19476;51.448;6.674;2022-08-19T08:03:12;13.52;;;8.48;;
33104;SDS011;19476;51.448;6.674;2022-08-19T08:05:40;11.63;;;8.23;;
33104;SDS011;19476;51.448;6.674;2022-08-19T08:08:24;12.27;;;8.23;;
33104;SDS011;19476;51.448;6.674;2022-08-19T08:11:09;12.18;;;8.18;;
33104;SDS011;19476;51.448;6.674;2022-08-19T08:13:35;12.07;;;8.05;;
33104;SDS011;19476;51.448;6.674;2022-08-19T08:16:02;13.82;;;9.07;;
33104;SDS011;19476;51.448;6.674;2022-08-19T08:18:28;11.98;;;8.15;;
33104;SDS011;19476;51.448;6.674;2022-08-19T08:20:54;13.68;;;9.45;;
33104;SDS011;19476;51.448;6.674;2022-08-19T08:23:21;15.63;;;9.05;;
33104;SDS011;19476;51.448;6.674;2022-08-19T08:25:50;16.85;;;10.68;;
33104;SDS011;19476;51.448;6.674;2022-08-19T08:28:17;14.38;;;9.15;;
33104;SDS011;19476;51.448;6.674;2022-08-19T08:30:43;13.18;;;9.45;;
33104;SDS011;19476;51.448;6.674;2022-08-19T08:33:10;13.40;;;9.20;;
33104;SDS011;19476;51.448;6.674;2022-08-19T08:35:36;14.90;;;9.55;;
33104;SDS011;19476;51.448;6.674;2022-08-19T08:38:02;13.48;;;9.73;;
33104;SDS011;19476;51.448;6.674;2022-08-19T08:45:52;13.20;;;9.55;;
33104;SDS011;19476;51.448;6.674;2022-08-19T08:48:27;14.25;;;9.45;;
33104;SDS011;19476;51.448;6.674;2022-08-19T08:51:14;15.85;;;10.40;;
33104;SDS011;19476;51.448;6.674;2022-08-19T08:53:44;14.48;;;9.43;;
33104;SDS011;19476;51.448;6.674;2022-08-19T09:01:10;14.40;;;9.80;;
33104;SDS011;19476;51.448;6.674;2022-08-19T09:03:37;15.07;;;9.85;;
33104;SDS011;19476;51.448;6.674;2022-08-19T09:09:02;13.00;;;8.90;;
33104;SDS011;19476;51.448;6.674;2022-08-19T09:11:36;12.68;;;8.98;;
33104;SDS011;19476;51.448;6.674;2022-08-19T09:14:10;19.58;;;9.52;;
33104;SDS011;19476;51.448;6.674;2022-08-19T09:16:51;19.05;;;10.15;;
33104;SDS011;19476;51.448;6.674;2022-08-19T09:19:17;14.82;;;9.63;;
33104;SDS011;19476;51.448;6.674;2022-08-19T09:21:43;13.07;;;8.65;;
33104;SDS011;19476;51.448;6.674;2022-08-19T09:24:10;15.45;;;10.50;;
33104;SDS011;19476;51.448;6.674;2022-08-19T09:26:36;14.05;;;9.63;;
33104;SDS011;19476;51.448;6.674;2022-08-19T09:29:02;12.63;;;8.15;;
33104;SDS011;19476;51.448;6.674;2022-08-19T09:31:30;11.90;;;8.13;;
33104;SDS011;19476;51.448;6.674;2022-08-19T09:33:57;12.68;;;9.55;;
33104;SDS011;19476;51.448;6.674;2022-08-19T09:36:25;13.65;;;9.38;;
33104;SDS011;19476;51.448;6.674;2022-08-19T09:38:54;13.80;;;9.32;;
33104;SDS011;19476;51.448;6.674;2022-08-19T09:41:22;12.60;;;8.93;;
33104;SDS011;19476;51.448;6.674;2022-08-19T09:43:50;11.35;;;8.70;;
33104;SDS011;19476;51.448;6.674;2022-08-19T09:46:20;10.73;;;7.15;;
33104;SDS011;19476;51.448;6.674;2022-08-19T09:48:48;13.15;;;8.98;;
33104;SDS011;19476;51.448;6.674;2022-08-19T09:51:25;10.38;;;7.93;;
33104;SDS011;19476;51.448;6.674;2022-08-19T09:53:53;16.58;;;11.43;;
33104;SDS011;19476;51.448;6.674;2022-08-19T09:56:20;13.50;;;10.07;;
33104;SDS011;19476;51.448;6.674;2022-08-19T09:58:46;16.65;;;10.52;;
33104;SDS011;19476;51.448;6.674;2022-08-19T10:01:17;13.27;;;10.02;;
33104;SDS011;19476;51.448;6.674;2022-08-19T10:03:49;13.65;;;9.60;;
33104;SDS011;19476;51.448;6.674;2022-08-19T10:06:18;13.93;;;9.63;;
33104;SDS011;19476;51.448;6.674;2022-08-19T10:08:45;14.25;;;8.82;;
33104;SDS011;19476;51.448;6.674;2022-08-19T10:11:12;13.82;;;7.78;;
33104;SDS011;19476;51.448;6.674;2022-08-19T10:13:41;10.85;;;6.90;;
33104;SDS011;19476;51.448;6.674;2022-08-19T10:16:08;10.60;;;7.28;;
33104;SDS011;19476;51.448;6.674;2022-08-19T10:21:07;10.77;;;7.70;;
33104;SDS011;19476;51.448;6.674;2022-08-19T10:23:35;12.07;;;8.30;;
33104;SDS011;19476;51.448;6.674;2022-08-19T10:26:03;11.88;;;8.68;;
33104;SDS011;19476;51.448;6.674;2022-08-19T10:28:32;11.23;;;7.88;;
33104;SDS011;19476;51.448;6.674;2022-08-19T10:31:03;9.88;;;6.60;;
33104;SDS011;19476;51.448;6.674;2022-08-19T10:33:31;9.10;;;6.45;;
33104;SDS011;19476;51.448;6.674;2022-08-19T10:36:04;11.13;;;7.53;;
33104;SDS011;19476;51.448;6.674;2022-08-19T10:38:35;9.93;;;6.57;;
33104;SDS011;19476;51.448;6.674;2022-08-19T10:41:09;9.90;;;6.93;;
33104;SDS011;19476;51.448;6.674;2022-08-19T10:43:37;10.43;;;7.57;;
33104;SDS011;19476;51.448;6.674;2022-08-19T10:46:08;9.18;;;6.28;;
33104;SDS011;19476;51.448;6.674;2022-08-19T10:48:36;8.18;;;5.88;;
33104;SDS011;19476;51.448;6.674;2022-08-19T10:51:02;9.05;;;6.32;;
33104;SDS011;19476;51.448;6.674;2022-08-19T10:53:47;9.18;;;6.03;;
33104;SDS011;19476;51.448;6.674;2022-08-19T10:56:13;7.05;;;5.13;;
33104;SDS011;19476;51.448;6.674;2022-08-19T10:58:58;9.73;;;6.30;;
33104;SDS011;19476;51.448;6.674;2022-08-19T11:01:25;10.38;;;6.43;;
33104;SDS011;19476;51.448;6.674;2022-08-19T11:03:52;9.48;;;6.60;;
33104;SDS011;19476;51.448;6.674;2022-08-19T11:06:18;8.43;;;5.65;;
33104;SDS011;19476;51.448;6.674;2022-08-19T11:08:45;9.32;;;6.10;;
33104;SDS011;19476;51.448;6.674;2022-08-19T11:11:11;9.35;;;5.75;;
33104;SDS011;19476;51.448;6.674;2022-08-19T11:13:39;9.02;;;6.22;;
33104;SDS011;19476;51.448;6.674;2022-08-19T11:16:11;9.50;;;6.05;;
33104;SDS011;19476;51.448;6.674;2022-08-19T11:18:42;8.65;;;5.72;;
33104;SDS011;19476;51.448;6.674;2022-08-19T11:23:47;6.63;;;4.85;;
33104;SDS011;19476;51.448;6.674;2022-08-19T11:26:17;9.02;;;6.32;;
33104;SDS011;19476;51.448;6.674;2022-08-19T11:28:44;7.78;;;5.93;;
33104;SDS011;19476;51.448;6.674;2022-08-19T11:31:11;8.55;;;5.38;;
33104;SDS011;19476;51.448;6.674;2022-08-19T11:33:45;6.35;;;4.20;;
33104;SDS011;19476;51.448;6.674;2022-08-19T11:36:11;8.93;;;5.90;;
33104;SDS011;19476;51.448;6.674;2022-08-19T11:38:38;6.65;;;4.47;;
33104;SDS011;19476;51.448;6.674;2022-08-19T11:41:06;5.68;;;4.10;;
33104;SDS011;19476;51.448;6.674;2022-08-19T11:43:33;6.63;;;4.95;;
33104;SDS011;19476;51.448;6.674;2022-08-19T11:46:03;8.95;;;5.95;;
33104;SDS011;19476;51.448;6.674;2022-08-19T11:48:35;7.60;;;5.20;;
33104;SDS011;19476;51.448;6.674;2022-08-19T11:51:03;8.40;;;4.45;;
33104;SDS011;19476;51.448;6.674;2022-08-19T11:53:34;7.10;;;4.53;;
33104;SDS011;19476;51.448;6.674;2022-08-19T11:56:01;7.93;;;4.35;;
33104;SDS011;19476;51.448;6.674;2022-08-19T11:58:28;8.55;;;5.45;;
33104;SDS011;19476;51.448;6.674;2022-08-19T12:00:55;7.40;;;4.50;;
33104;SDS011;19476;51.448;6.674;2022-08-19T12:03:21;6.18;;;4.20;;
33104;SDS011;19476;51.448;6.674;2022-08-19T12:05:47;6.45;;;4.15;;
33104;SDS011;19476;51.448;6.674;2022-08-19T12:08:14;5.85;;;3.92;;
33104;SDS011;19476;51.448;6.674;2022-08-19T12:10:40;7.63;;;4.60;;
33104;SDS011;19476;51.448;6.674;2022-08-19T12:13:07;7.53;;;4.85;;
33104;SDS011;19476;51.448;6.674;2022-08-19T12:15:37;6.30;;;4.18;;
33104;SDS011;19476;51.448;6.674;2022-08-19T12:18:06;5.93;;;4.25;;
33104;SDS011;19476;51.448;6.674;2022-08-19T12:20:37;6.85;;;4.15;;
33104;SDS011;19476;51.448;6.674;2022-08-19T12:23:04;6.97;;;3.95;;
33104;SDS011;19476;51.448;6.674;2022-08-19T12:25:32;5.25;;;3.33;;
33104;SDS011;19476;51.448;6.674;2022-08-19T12:27:59;5.07;;;3.03;;
33104;SDS011;19476;51.448;6.674;2022-08-19T12:30:26;5.22;;;3.50;;
33104;SDS011;19476;51.448;6.674;2022-08-19T12:32:52;4.50;;;3.22;;
33104;SDS011;19476;51.448;6.674;2022-08-19T12:35:18;3.92;;;2.95;;
33104;SDS011;19476;51.448;6.674;2022-08-19T12:40:14;5.25;;;3.13;;
33104;SDS011;19476;51.448;6.674;2022-08-19T12:42:42;3.97;;;2.75;;
33104;SDS011;19476;51.448;6.674;2022-08-19T12:45:09;4.88;;;3.42;;
33104;SDS011;19476;51.448;6.674;2022-08-19T12:47:35;5.93;;;3.28;;
33104;SDS011;19476;51.448;6.674;2022-08-19T12:50:05;3.83;;;2.85;;
33104;SDS011;19476;51.448;6.674;2022-08-19T12:52:35;4.70;;;3.25;;
33104;SDS011;19476;51.448;6.674;2022-08-19T12:55:02;5.47;;;3.10;;
33104;SDS011;19476;51.448;6.674;2022-08-19T12:57:31;4.88;;;3.67;;
33104;SDS011;19476;51.448;6.674;2022-08-19T13:00:08;5.28;;;3.28;;
33104;SDS011;19476;51.448;6.674;2022-08-19T13:02:38;4.82;;;3.35;;
33104;SDS011;19476;51.448;6.674;2022-08-19T13:05:09;4.80;;;3.17;;
33104;SDS011;19476;51.448;6.674;2022-08-19T13:07:37;4.38;;;3.53;;
33104;SDS011;19476;51.448;6.674;2022-08-19T13:10:05;4.32;;;3.13;;
33104;SDS011;19476;51.448;6.674;2022-08-19T13:12:32;7.05;;;3.55;;
33104;SDS011;19476;51.448;6.674;2022-08-19T13:14:59;4.97;;;3.58;;
33104;SDS011;19476;51.448;6.674;2022-08-19T13:17:25;6.22;;;4.00;;
33104;SDS011;19476;51.448;6.674;2022-08-19T13:19:50;5.38;;;3.55;;
33104;SDS011;19476;51.448;6.674;2022-08-19T13:22:16;4.55;;;3.55;;
33104;SDS011;19476;51.448;6.674;2022-08-19T13:24:43;5.60;;;4.22;;
33104;SDS011;19476;51.448;6.674;2022-08-19T13:27:09;4.50;;;3.55;;
33104;SDS011;19476;51.448;6.674;2022-08-19T13:29:35;5.85;;;3.80;;
33104;SDS011;19476;51.448;6.674;2022-08-19T13:32:19;7.13;;;3.90;;
33104;SDS011;19476;51.448;6.674;2022-08-19T13:35:04;5.53;;;4.53;;
33104;SDS011;19476;51.448;6.674;2022-08-19T13:37:30;5.78;;;4.60;;
33104;SDS011;19476;51.448;6.674;2022-08-19T13:40:12;6.53;;;4.53;;
33104;SDS011;19476;51.448;6.674;2022-08-19T13:42:43;5.47;;;4.38;;
33104;SDS011;19476;51.448;6.674;2022-08-19T13:45:11;5.78;;;4.50;;
33104;SDS011;19476;51.448;6.674;2022-08-19T13:47:38;4.75;;;4.00;;
33104;SDS011;19476;51.448;6.674;2022-08-19T13:50:10;5.95;;;4.63;;
33104;SDS011;19476;51.448;6.674;2022-08-19T13:52:38;5.90;;;4.72;;
33104;SDS011;19476;51.448;6.674;2022-08-19T13:55:05;7.57;;;4.97;;
33104;SDS011;19476;51.448;6.674;2022-08-19T13:57:32;6.60;;;5.20;;
33104;SDS011;19476;51.448;6.674;2022-08-19T13:59:58;5.57;;;4.55;;
33104;SDS011;19476;51.448;6.674;2022-08-19T14:02:25;6.05;;;4.78;;
33104;SDS011;19476;51.448;6.674;2022-08-19T14:04:51;5.63;;;3.83;;
33104;SDS011;19476;51.448;6.674;2022-08-19T14:07:17;6.47;;;4.85;;
33104;SDS011;19476;51.448;6.674;2022-08-19T14:09:43;8.10;;;4.18;;
33104;SDS011;19476;51.448;6.674;2022-08-19T14:12:09;8.05;;;3.95;;
33104;SDS011;19476;51.448;6.674;2022-08-19T14:14:36;5.20;;;4.32;;
33104;SDS011;19476;51.448;6.674;2022-08-19T14:17:06;4.75;;;3.83;;
33104;SDS011;19476;51.448;6.674;2022-08-19T14:19:33;4.05;;;3.40;;
33104;SDS011;19476;51.448;6.674;2022-08-19T14:21:59;4.97;;;3.63;;
33104;SDS011;19476;51.448;6.674;2022-08-19T14:24:25;6.00;;;3.30;;
33104;SDS011;19476;51.448;6.674;2022-08-19T14:26:51;5.35;;;3.53;;
33104;SDS011;19476;51.448;6.674;2022-08-19T14:29:17;5.45;;;3.72;;
33104;SDS011;19476;51.448;6.674;2022-08-19T14:31:43;5.80;;;3.67;;
33104;SDS011;19476;51.448;6.674;2022-08-19T14:34:09;5.07;;;3.88;;
33104;SDS011;19476;51.448;6.674;2022-08-19T14:36:36;8.30;;;3.92;;
33104;SDS011;19476;51.448;6.674;2022-08-19T14:39:03;5.50;;;3.72;;
33104;SDS011;19476;51.448;6.674;2022-08-19T14:41:29;7.95;;;3.55;;
33104;SDS011;19476;51.448;6.674;2022-08-19T14:43:56;4.55;;;3.13;;
33104;SDS011;19476;51.448;6.674;2022-08-19T14:46:24;3.67;;;2.65;;
33104;SDS011;19476;51.448;6.674;2022-08-19T14:51:18;4.28;;;3.30;;
33104;SDS011;19476;51.448;6.674;2022-08-19T14:53:46;5.82;;;3.78;;
33104;SDS011;19476;51.448;6.674;2022-08-19T14:56:16;4.75;;;3.97;;
33104;SDS011;19476;51.448;6.674;2022-08-19T14:58:44;6.65;;;4.40;;
33104;SDS011;19476;51.448;6.674;2022-08-19T15:01:11;7.47;;;4.72;;
33104;SDS011;19476;51.448;6.674;2022-08-19T15:03:38;5.45;;;3.55;;
33104;SDS011;19476;51.448;6.674;2022-08-19T15:06:05;5.65;;;3.60;;
33104;SDS011;19476;51.448;6.674;2022-08-19T15:08:32;4.55;;;3.30;;
33104;SDS011;19476;51.448;6.674;2022-08-19T15:11:00;5.83;;;3.77;;
33104;SDS011;19476;51.448;6.674;2022-08-19T15:13:27;5.38;;;3.80;;
33104;SDS011;19476;51.448;6.674;2022-08-19T15:15:53;8.77;;;4.47;;
33104;SDS011;19476;51.448;6.674;2022-08-19T15:18:20;6.43;;;4.28;;
33104;SDS011;19476;51.448;6.674;2022-08-19T15:20:49;7.18;;;4.45;;
33104;SDS011;19476;51.448;6.674;2022-08-19T15:25:42;6.43;;;4.43;;
33104;SDS011;19476;51.448;6.674;2022-08-19T15:28:09;6.20;;;4.60;;
33104;SDS011;19476;51.448;6.674;2022-08-19T15:30:40;7.15;;;4.70;;